sensor_id;sensor_type;location;lat;lon;timestamp;temperature;humidity
20594;DHT22;10455;48.732;10.266;2023-02-28T00:00:37;-3.00;99.90
20594;DHT22;10455;48.732;10.266;2023-02-28T00:05:41;-3.10;99.90
20594;DHT22;10455;48.732;10.266;2023-02-28T00:10:43;-3.10;99.90
20594;DHT22;10455;48.732;10.266;2023-02-28T00:15:45;-3.10;99.90
20594;DHT22;10455;48.732;10.266;2023-02-28T00:20:48;-3.10;99.90
20594;DHT22;10455;48.732;10.266;2023-02-28T00:25:50;-3.00;99.90
20594;DHT22;10455;48.732;10.266;2023-02-28T00:30:52;-3.20;99.90
20594;DHT22;10455;48.732;10.266;2023-02-28T00:36:04;-3.10;99.90
20594;DHT22;10455;48.732;10.266;2023-02-28T00:41:06;-3.00;99.90
20594;DHT22;10455;48.732;10.266;2023-02-28T00:46:08;-3.20;99.90
20594;DHT22;10455;48.732;10.266;2023-02-28T00:51:11;-3.20;99.90
20594;DHT22;10455;48.732;10.266;2023-02-28T00:56:13;-3.20;99.90
20594;DHT22;10455;48.732;10.266;2023-02-28T01:01:15;-3.30;99.90
20594;DHT22;10455;48.732;10.266;2023-02-28T01:06:18;-3.30;99.90
20594;DHT22;10455;48.732;10.266;2023-02-28T01:11:20;-3.40;99.90
20594;DHT22;10455;48.732;10.266;2023-02-28T01:16:22;-3.50;99.90
20594;DHT22;10455;48.732;10.266;2023-02-28T01:21:26;-3.50;99.90
20594;DHT22;10455;48.732;10.266;2023-02-28T01:26:28;-3.50;99.90
20594;DHT22;10455;48.732;10.266;2023-02-28T01:31:29;-3.50;99.90
20594;DHT22;10455;48.732;10.266;2023-02-28T01:36:33;-3.60;99.90
20594;DHT22;10455;48.732;10.266;2023-02-28T01:41:35;-3.70;99.90
20594;DHT22;10455;48.732;10.266;2023-02-28T01:46:37;-3.70;99.90
20594;DHT22;10455;48.732;10.266;2023-02-28T01:51:42;-3.60;99.90
20594;DHT22;10455;48.732;10.266;2023-02-28T01:56:50;-3.50;99.90
20594;DHT22;10455;48.732;10.266;2023-02-28T02:01:53;-3.50;99.90
20594;DHT22;10455;48.732;10.266;2023-02-28T02:06:58;-3.50;99.90
20594;DHT22;10455;48.732;10.266;2023-02-28T02:12:10;-3.40;99.90
20594;DHT22;10455;48.732;10.266;2023-02-28T02:17:21;-3.40;99.90
20594;DHT22;10455;48.732;10.266;2023-02-28T02:22:46;-3.50;99.90
20594;DHT22;10455;48.732;10.266;2023-02-28T02:28:31;-3.40;99.90
20594;DHT22;10455;48.732;10.266;2023-02-28T02:34:09;-3.30;99.90
20594;DHT22;10455;48.732;10.266;2023-02-28T02:39:19;-3.40;99.90
20594;DHT22;10455;48.732;10.266;2023-02-28T02:44:28;-3.30;99.90
20594;DHT22;10455;48.732;10.266;2023-02-28T02:49:36;-3.30;99.90
20594;DHT22;10455;48.732;10.266;2023-02-28T02:54:41;-3.30;99.90
20594;DHT22;10455;48.732;10.266;2023-02-28T02:59:44;-3.20;99.90
20594;DHT22;10455;48.732;10.266;2023-02-28T03:04:51;-3.50;99.90
20594;DHT22;10455;48.732;10.266;2023-02-28T03:09:55;-3.40;99.90
20594;DHT22;10455;48.732;10.266;2023-02-28T03:15:04;-3.30;99.90
20594;DHT22;10455;48.732;10.266;2023-02-28T03:20:17;-3.20;99.90
20594;DHT22;10455;48.732;10.266;2023-02-28T03:25:30;-3.30;99.90
20594;DHT22;10455;48.732;10.266;2023-02-28T03:30:39;-3.30;99.90
20594;DHT22;10455;48.732;10.266;2023-02-28T03:35:48;-3.30;99.90
20594;DHT22;10455;48.732;10.266;2023-02-28T03:40:56;-3.30;99.90
20594;DHT22;10455;48.732;10.266;2023-02-28T03:46:02;-3.40;99.90
20594;DHT22;10455;48.732;10.266;2023-02-28T03:51:10;-3.50;99.90
20594;DHT22;10455;48.732;10.266;2023-02-28T03:56:16;-3.50;99.90
20594;DHT22;10455;48.732;10.266;2023-02-28T04:01:22;-3.40;99.90
20594;DHT22;10455;48.732;10.266;2023-02-28T04:06:26;-3.60;99.90
20594;DHT22;10455;48.732;10.266;2023-02-28T04:11:33;-3.50;99.90
20594;DHT22;10455;48.732;10.266;2023-02-28T04:16:38;-3.50;99.90
20594;DHT22;10455;48.732;10.266;2023-02-28T04:21:42;-3.60;99.90
20594;DHT22;10455;48.732;10.266;2023-02-28T04:26:46;-3.50;99.90
20594;DHT22;10455;48.732;10.266;2023-02-28T04:31:49;-3.50;99.90
20594;DHT22;10455;48.732;10.266;2023-02-28T04:36:52;-3.70;99.90
20594;DHT22;10455;48.732;10.266;2023-02-28T04:41:55;-3.60;99.90
20594;DHT22;10455;48.732;10.266;2023-02-28T04:46:57;-3.70;99.90
20594;DHT22;10455;48.732;10.266;2023-02-28T04:52:00;-3.60;99.90
20594;DHT22;10455;48.732;10.266;2023-02-28T04:57:02;-3.70;99.90
20594;DHT22;10455;48.732;10.266;2023-02-28T05:02:04;-3.40;99.90
20594;DHT22;10455;48.732;10.266;2023-02-28T05:07:09;-3.60;99.90
20594;DHT22;10455;48.732;10.266;2023-02-28T05:12:11;-3.70;99.90
20594;DHT22;10455;48.732;10.266;2023-02-28T05:17:13;-3.60;99.90
20594;DHT22;10455;48.732;10.266;2023-02-28T05:22:16;-3.60;99.90
20594;DHT22;10455;48.732;10.266;2023-02-28T05:27:18;-3.50;99.90
20594;DHT22;10455;48.732;10.266;2023-02-28T05:32:20;-3.50;99.90
20594;DHT22;10455;48.732;10.266;2023-02-28T05:37:23;-3.40;99.90
20594;DHT22;10455;48.732;10.266;2023-02-28T05:42:25;-3.60;99.90
20594;DHT22;10455;48.732;10.266;2023-02-28T05:47:27;-3.60;99.90
20594;DHT22;10455;48.732;10.266;2023-02-28T05:52:30;-3.60;99.90
20594;DHT22;10455;48.732;10.266;2023-02-28T05:57:32;-3.60;99.90
20594;DHT22;10455;48.732;10.266;2023-02-28T06:02:33;-3.50;99.90
20594;DHT22;10455;48.732;10.266;2023-02-28T06:07:37;-3.40;99.90
20594;DHT22;10455;48.732;10.266;2023-02-28T06:12:39;-3.60;99.90
20594;DHT22;10455;48.732;10.266;2023-02-28T06:17:42;-3.50;99.90
20594;DHT22;10455;48.732;10.266;2023-02-28T06:22:45;-3.40;99.90
20594;DHT22;10455;48.732;10.266;2023-02-28T06:27:47;-3.50;99.90
20594;DHT22;10455;48.732;10.266;2023-02-28T06:32:49;-3.40;99.90
20594;DHT22;10455;48.732;10.266;2023-02-28T06:37:53;-3.30;99.90
20594;DHT22;10455;48.732;10.266;2023-02-28T06:42:55;-3.30;99.90
20594;DHT22;10455;48.732;10.266;2023-02-28T06:47:57;-3.30;99.90
20594;DHT22;10455;48.732;10.266;2023-02-28T06:53:01;-3.10;99.90
20594;DHT22;10455;48.732;10.266;2023-02-28T06:58:03;-3.30;99.90
20594;DHT22;10455;48.732;10.266;2023-02-28T07:03:15;-3.00;99.90
20594;DHT22;10455;48.732;10.266;2023-02-28T07:08:19;-2.90;99.90
20594;DHT22;10455;48.732;10.266;2023-02-28T07:13:22;-3.10;99.90
20594;DHT22;10455;48.732;10.266;2023-02-28T07:18:24;-2.90;99.90
20594;DHT22;10455;48.732;10.266;2023-02-28T07:23:27;-3.00;99.90
20594;DHT22;10455;48.732;10.266;2023-02-28T07:28:29;-3.10;99.90
20594;DHT22;10455;48.732;10.266;2023-02-28T07:33:31;-3.00;99.90
20594;DHT22;10455;48.732;10.266;2023-02-28T07:38:35;-2.60;99.90
20594;DHT22;10455;48.732;10.266;2023-02-28T07:43:38;-2.50;99.90
20594;DHT22;10455;48.732;10.266;2023-02-28T07:48:40;-2.50;99.90
20594;DHT22;10455;48.732;10.266;2023-02-28T07:53:43;-2.00;99.90
20594;DHT22;10455;48.732;10.266;2023-02-28T07:58:45;-2.10;99.90
20594;DHT22;10455;48.732;10.266;2023-02-28T08:03:47;-1.60;99.90
20594;DHT22;10455;48.732;10.266;2023-02-28T08:08:51;-1.70;99.90
20594;DHT22;10455;48.732;10.266;2023-02-28T08:13:54;-1.40;99.90
20594;DHT22;10455;48.732;10.266;2023-02-28T08:18:56;-1.80;99.90
20594;DHT22;10455;48.732;10.266;2023-02-28T08:23:59;-1.30;99.90
20594;DHT22;10455;48.732;10.266;2023-02-28T08:29:01;-1.40;99.90
20594;DHT22;10455;48.732;10.266;2023-02-28T08:34:05;-0.70;99.90
20594;DHT22;10455;48.732;10.266;2023-02-28T08:39:08;-0.30;99.90
20594;DHT22;10455;48.732;10.266;2023-02-28T08:44:10;-0.10;99.90
20594;DHT22;10455;48.732;10.266;2023-02-28T08:49:12;0.50;99.90
20594;DHT22;10455;48.732;10.266;2023-02-28T08:54:15;0.50;99.90
20594;DHT22;10455;48.732;10.266;2023-02-28T08:59:19;0.10;99.90
20594;DHT22;10455;48.732;10.266;2023-02-28T09:04:22;-0.20;99.90
20594;DHT22;10455;48.732;10.266;2023-02-28T09:09:25;0.10;99.90
20594;DHT22;10455;48.732;10.266;2023-02-28T09:14:27;-0.40;99.90
20594;DHT22;10455;48.732;10.266;2023-02-28T09:19:29;-0.50;99.90
20594;DHT22;10455;48.732;10.266;2023-02-28T09:24:32;0.10;99.90
20594;DHT22;10455;48.732;10.266;2023-02-28T09:29:34;0.50;99.90
20594;DHT22;10455;48.732;10.266;2023-02-28T09:34:37;0.60;99.90
20594;DHT22;10455;48.732;10.266;2023-02-28T09:39:40;0.50;99.90
20594;DHT22;10455;48.732;10.266;2023-02-28T09:44:45;0.70;99.90
20594;DHT22;10455;48.732;10.266;2023-02-28T09:49:48;0.90;99.90
20594;DHT22;10455;48.732;10.266;2023-02-28T09:54:52;0.80;99.90
20594;DHT22;10455;48.732;10.266;2023-02-28T10:00:06;2.50;99.90
20594;DHT22;10455;48.732;10.266;2023-02-28T10:05:13;4.00;99.90
20594;DHT22;10455;48.732;10.266;2023-02-28T10:10:24;3.90;99.90
20594;DHT22;10455;48.732;10.266;2023-02-28T10:15:31;3.10;99.90
20594;DHT22;10455;48.732;10.266;2023-02-28T10:20:36;1.90;99.90
20594;DHT22;10455;48.732;10.266;2023-02-28T10:25:40;3.10;99.90
20594;DHT22;10455;48.732;10.266;2023-02-28T10:30:50;3.80;99.90
20594;DHT22;10455;48.732;10.266;2023-02-28T10:35:53;3.50;99.90
20594;DHT22;10455;48.732;10.266;2023-02-28T10:41:05;5.10;99.90
20594;DHT22;10455;48.732;10.266;2023-02-28T10:46:13;5.40;99.90
20594;DHT22;10455;48.732;10.266;2023-02-28T10:51:34;4.50;99.90
20594;DHT22;10455;48.732;10.266;2023-02-28T10:56:38;4.50;99.90
20594;DHT22;10455;48.732;10.266;2023-02-28T11:01:41;4.40;99.90
20594;DHT22;10455;48.732;10.266;2023-02-28T11:06:45;3.90;99.90
20594;DHT22;10455;48.732;10.266;2023-02-28T11:11:49;3.60;99.90
20594;DHT22;10455;48.732;10.266;2023-02-28T11:16:54;4.10;99.90
20594;DHT22;10455;48.732;10.266;2023-02-28T11:22:00;3.70;99.90
20594;DHT22;10455;48.732;10.266;2023-02-28T11:27:04;4.50;99.90
20594;DHT22;10455;48.732;10.266;2023-02-28T11:32:12;4.30;99.90
20594;DHT22;10455;48.732;10.266;2023-02-28T11:37:17;4.70;99.90
20594;DHT22;10455;48.732;10.266;2023-02-28T11:42:39;5.30;99.90
20594;DHT22;10455;48.732;10.266;2023-02-28T11:47:48;3.90;99.90
20594;DHT22;10455;48.732;10.266;2023-02-28T11:52:55;3.60;99.90
20594;DHT22;10455;48.732;10.266;2023-02-28T11:58:15;3.30;99.90
20594;DHT22;10455;48.732;10.266;2023-02-28T12:03:27;3.50;99.90
20594;DHT22;10455;48.732;10.266;2023-02-28T12:08:44;3.60;99.90
20594;DHT22;10455;48.732;10.266;2023-02-28T12:13:58;3.30;99.90
20594;DHT22;10455;48.732;10.266;2023-02-28T12:19:18;3.70;99.90
20594;DHT22;10455;48.732;10.266;2023-02-28T12:24:32;3.90;99.90
20594;DHT22;10455;48.732;10.266;2023-02-28T12:29:47;3.30;99.90
20594;DHT22;10455;48.732;10.266;2023-02-28T12:34:53;3.40;99.90
20594;DHT22;10455;48.732;10.266;2023-02-28T12:40:01;3.00;99.90
20594;DHT22;10455;48.732;10.266;2023-02-28T12:45:12;3.20;99.90
20594;DHT22;10455;48.732;10.266;2023-02-28T12:50:16;3.30;99.90
20594;DHT22;10455;48.732;10.266;2023-02-28T12:55:23;3.30;99.90
20594;DHT22;10455;48.732;10.266;2023-02-28T13:00:34;3.30;99.90
20594;DHT22;10455;48.732;10.266;2023-02-28T13:06:08;3.30;99.90
20594;DHT22;10455;48.732;10.266;2023-02-28T13:11:25;3.20;99.90
20594;DHT22;10455;48.732;10.266;2023-02-28T13:16:54;3.60;99.90
20594;DHT22;10455;48.732;10.266;2023-02-28T13:21:57;3.30;99.90
20594;DHT22;10455;48.732;10.266;2023-02-28T13:27:35;3.50;99.90
20594;DHT22;10455;48.732;10.266;2023-02-28T13:32:38;3.60;99.90
20594;DHT22;10455;48.732;10.266;2023-02-28T13:37:43;3.30;99.90
20594;DHT22;10455;48.732;10.266;2023-02-28T13:42:47;3.70;99.90
20594;DHT22;10455;48.732;10.266;2023-02-28T13:47:58;4.60;99.90
20594;DHT22;10455;48.732;10.266;2023-02-28T13:58:46;3.80;99.90
20594;DHT22;10455;48.732;10.266;2023-02-28T14:04:29;4.10;99.90
20594;DHT22;10455;48.732;10.266;2023-02-28T14:09:38;4.60;99.90
20594;DHT22;10455;48.732;10.266;2023-02-28T14:14:55;3.60;99.90
20594;DHT22;10455;48.732;10.266;2023-02-28T14:20:00;4.00;99.90
20594;DHT22;10455;48.732;10.266;2023-02-28T14:25:09;4.10;99.90
20594;DHT22;10455;48.732;10.266;2023-02-28T14:36:03;4.30;99.90
20594;DHT22;10455;48.732;10.266;2023-02-28T14:41:14;4.10;99.90
20594;DHT22;10455;48.732;10.266;2023-02-28T14:46:18;4.40;99.90
20594;DHT22;10455;48.732;10.266;2023-02-28T14:51:23;4.10;99.90
20594;DHT22;10455;48.732;10.266;2023-02-28T14:56:28;4.20;99.90
20594;DHT22;10455;48.732;10.266;2023-02-28T15:01:32;4.30;99.90
20594;DHT22;10455;48.732;10.266;2023-02-28T15:06:35;4.00;99.90
20594;DHT22;10455;48.732;10.266;2023-02-28T15:11:38;3.90;99.90
20594;DHT22;10455;48.732;10.266;2023-02-28T15:16:42;4.00;99.90
20594;DHT22;10455;48.732;10.266;2023-02-28T15:21:49;3.80;99.90
20594;DHT22;10455;48.732;10.266;2023-02-28T15:26:56;4.00;99.90
20594;DHT22;10455;48.732;10.266;2023-02-28T15:32:01;3.80;99.90
20594;DHT22;10455;48.732;10.266;2023-02-28T15:37:28;3.20;99.90
20594;DHT22;10455;48.732;10.266;2023-02-28T15:42:31;2.70;99.90
20594;DHT22;10455;48.732;10.266;2023-02-28T15:47:33;2.70;99.90
20594;DHT22;10455;48.732;10.266;2023-02-28T15:52:38;2.50;99.90
20594;DHT22;10455;48.732;10.266;2023-02-28T15:57:42;2.30;99.90
20594;DHT22;10455;48.732;10.266;2023-02-28T16:02:44;2.30;99.90
20594;DHT22;10455;48.732;10.266;2023-02-28T16:07:47;2.10;99.90
20594;DHT22;10455;48.732;10.266;2023-02-28T16:12:49;1.90;99.90
20594;DHT22;10455;48.732;10.266;2023-02-28T16:17:52;1.80;99.90
20594;DHT22;10455;48.732;10.266;2023-02-28T16:22:55;1.50;99.90
20594;DHT22;10455;48.732;10.266;2023-02-28T16:28:02;1.50;99.90
20594;DHT22;10455;48.732;10.266;2023-02-28T16:33:04;1.40;99.90
20594;DHT22;10455;48.732;10.266;2023-02-28T16:38:07;1.20;99.90
20594;DHT22;10455;48.732;10.266;2023-02-28T16:43:15;1.10;99.90
20594;DHT22;10455;48.732;10.266;2023-02-28T16:48:18;1.00;99.90
20594;DHT22;10455;48.732;10.266;2023-02-28T16:53:22;0.90;99.90
20594;DHT22;10455;48.732;10.266;2023-02-28T16:58:24;0.60;99.90
20594;DHT22;10455;48.732;10.266;2023-02-28T17:03:27;0.60;99.90
20594;DHT22;10455;48.732;10.266;2023-02-28T17:08:31;0.60;99.90
20594;DHT22;10455;48.732;10.266;2023-02-28T17:13:33;0.40;99.90
20594;DHT22;10455;48.732;10.266;2023-02-28T17:18:35;0.00;99.90
20594;DHT22;10455;48.732;10.266;2023-02-28T17:23:38;-0.40;99.90
20594;DHT22;10455;48.732;10.266;2023-02-28T17:28:40;-0.60;99.90
20594;DHT22;10455;48.732;10.266;2023-02-28T17:33:43;-0.70;99.90
20594;DHT22;10455;48.732;10.266;2023-02-28T17:38:46;-1.00;99.90
20594;DHT22;10455;48.732;10.266;2023-02-28T17:43:48;-1.20;99.90
20594;DHT22;10455;48.732;10.266;2023-02-28T17:48:52;-1.60;99.90
20594;DHT22;10455;48.732;10.266;2023-02-28T17:53:55;-1.80;99.90
20594;DHT22;10455;48.732;10.266;2023-02-28T17:58:57;-1.90;99.90
20594;DHT22;10455;48.732;10.266;2023-02-28T18:03:59;-1.90;99.90
20594;DHT22;10455;48.732;10.266;2023-02-28T18:09:02;-2.10;99.90
20594;DHT22;10455;48.732;10.266;2023-02-28T18:14:04;-2.30;99.90
20594;DHT22;10455;48.732;10.266;2023-02-28T18:19:06;-2.40;99.90
20594;DHT22;10455;48.732;10.266;2023-02-28T18:24:11;-2.50;99.90
20594;DHT22;10455;48.732;10.266;2023-02-28T18:29:18;-2.60;99.90
20594;DHT22;10455;48.732;10.266;2023-02-28T18:34:20;-2.60;99.90
20594;DHT22;10455;48.732;10.266;2023-02-28T18:39:23;-2.70;99.90
20594;DHT22;10455;48.732;10.266;2023-02-28T18:44:25;-2.60;99.90
20594;DHT22;10455;48.732;10.266;2023-02-28T18:49:28;-2.30;99.90
20594;DHT22;10455;48.732;10.266;2023-02-28T18:54:34;-2.00;99.90
20594;DHT22;10455;48.732;10.266;2023-02-28T18:59:36;-1.90;99.90
20594;DHT22;10455;48.732;10.266;2023-02-28T19:04:40;-1.80;99.90
20594;DHT22;10455;48.732;10.266;2023-02-28T19:09:43;-1.80;99.90
20594;DHT22;10455;48.732;10.266;2023-02-28T19:14:45;-1.80;99.90
20594;DHT22;10455;48.732;10.266;2023-02-28T19:19:47;-1.80;99.90
20594;DHT22;10455;48.732;10.266;2023-02-28T19:24:52;-1.80;99.90
20594;DHT22;10455;48.732;10.266;2023-02-28T19:29:54;-1.90;99.90
20594;DHT22;10455;48.732;10.266;2023-02-28T19:34:58;-1.90;99.90
20594;DHT22;10455;48.732;10.266;2023-02-28T19:40:01;-2.10;99.90
20594;DHT22;10455;48.732;10.266;2023-02-28T19:45:04;-2.10;99.90
20594;DHT22;10455;48.732;10.266;2023-02-28T19:50:10;-2.20;99.90
20594;DHT22;10455;48.732;10.266;2023-02-28T19:55:13;-2.00;99.90
20594;DHT22;10455;48.732;10.266;2023-02-28T20:00:16;-2.00;99.90
20594;DHT22;10455;48.732;10.266;2023-02-28T20:05:18;-2.10;99.90
20594;DHT22;10455;48.732;10.266;2023-02-28T20:10:21;-2.20;99.90
20594;DHT22;10455;48.732;10.266;2023-02-28T20:15:24;-2.10;99.90
20594;DHT22;10455;48.732;10.266;2023-02-28T20:20:26;-2.10;99.90
20594;DHT22;10455;48.732;10.266;2023-02-28T20:25:29;-2.10;99.90
20594;DHT22;10455;48.732;10.266;2023-02-28T20:30:32;-2.30;99.90
20594;DHT22;10455;48.732;10.266;2023-02-28T20:35:34;-2.30;99.90
20594;DHT22;10455;48.732;10.266;2023-02-28T20:40:37;-2.40;99.90
20594;DHT22;10455;48.732;10.266;2023-02-28T20:45:39;-2.40;99.90
20594;DHT22;10455;48.732;10.266;2023-02-28T20:50:51;-2.30;99.90
20594;DHT22;10455;48.732;10.266;2023-02-28T20:55:55;-2.30;99.90
20594;DHT22;10455;48.732;10.266;2023-02-28T21:01:01;-2.40;99.90
20594;DHT22;10455;48.732;10.266;2023-02-28T21:06:04;-2.50;99.90
20594;DHT22;10455;48.732;10.266;2023-02-28T21:11:09;-2.50;99.90
20594;DHT22;10455;48.732;10.266;2023-02-28T21:16:13;-2.80;99.90
20594;DHT22;10455;48.732;10.266;2023-02-28T21:21:17;-3.10;99.90
20594;DHT22;10455;48.732;10.266;2023-02-28T21:26:22;-3.20;99.90
20594;DHT22;10455;48.732;10.266;2023-02-28T21:31:26;-3.50;99.90
20594;DHT22;10455;48.732;10.266;2023-02-28T21:36:29;-3.60;99.90
20594;DHT22;10455;48.732;10.266;2023-02-28T21:41:34;-3.70;99.90
20594;DHT22;10455;48.732;10.266;2023-02-28T21:46:36;-3.90;99.90
20594;DHT22;10455;48.732;10.266;2023-02-28T21:51:38;-4.00;99.90
20594;DHT22;10455;48.732;10.266;2023-02-28T21:56:43;-4.10;99.90
20594;DHT22;10455;48.732;10.266;2023-02-28T22:01:47;-4.20;99.90
20594;DHT22;10455;48.732;10.266;2023-02-28T22:06:51;-4.20;99.90
20594;DHT22;10455;48.732;10.266;2023-02-28T22:11:55;-4.20;99.90
20594;DHT22;10455;48.732;10.266;2023-02-28T22:16:57;-4.20;99.90
20594;DHT22;10455;48.732;10.266;2023-02-28T22:21:59;-4.30;99.90
20594;DHT22;10455;48.732;10.266;2023-02-28T22:27:02;-4.40;99.90
20594;DHT22;10455;48.732;10.266;2023-02-28T22:32:07;-4.50;99.90
20594;DHT22;10455;48.732;10.266;2023-02-28T22:37:09;-4.50;99.90
20594;DHT22;10455;48.732;10.266;2023-02-28T22:42:12;-4.50;99.90
20594;DHT22;10455;48.732;10.266;2023-02-28T22:47:14;-4.40;99.90
20594;DHT22;10455;48.732;10.266;2023-02-28T22:52:16;-4.40;99.90
20594;DHT22;10455;48.732;10.266;2023-02-28T22:57:19;-4.40;99.90
20594;DHT22;10455;48.732;10.266;2023-02-28T23:02:21;-4.50;99.90
20594;DHT22;10455;48.732;10.266;2023-02-28T23:07:23;-4.60;99.90
20594;DHT22;10455;48.732;10.266;2023-02-28T23:12:26;-4.70;99.90
20594;DHT22;10455;48.732;10.266;2023-02-28T23:17:30;-4.90;99.90
20594;DHT22;10455;48.732;10.266;2023-02-28T23:22:32;-4.80;99.90
20594;DHT22;10455;48.732;10.266;2023-02-28T23:27:35;-4.90;99.90
20594;DHT22;10455;48.732;10.266;2023-02-28T23:32:38;-4.90;99.90
20594;DHT22;10455;48.732;10.266;2023-02-28T23:37:40;-4.70;99.90
20594;DHT22;10455;48.732;10.266;2023-02-28T23:42:44;-4.50;99.90
20594;DHT22;10455;48.732;10.266;2023-02-28T23:47:45;-4.40;99.90
20594;DHT22;10455;48.732;10.266;2023-02-28T23:52:47;-4.10;99.90
20594;DHT22;10455;48.732;10.266;2023-02-28T23:57:51;-3.70;99.90
